sensor_id;sensor_type;location;lat;lon;timestamp;pressure;altitude;pressure_sealevel;temperature;humidity
43503;BME280;29098;48.184;16.298;2023-02-16T00:00:25;100607.69;;;0.02;100.00
43503;BME280;29098;48.184;16.298;2023-02-16T00:02:51;100604.94;;;0.05;100.00
43503;BME280;29098;48.184;16.298;2023-02-16T00:05:23;100607.53;;;0.05;100.00
43503;BME280;29098;48.184;16.298;2023-02-16T00:07:50;100610.47;;;-0.02;100.00
43503;BME280;29098;48.184;16.298;2023-02-16T00:10:15;100610.47;;;0.15;100.00
43503;BME280;29098;48.184;16.298;2023-02-16T00:12:40;100608.22;;;0.24;100.00
43503;BME280;29098;48.184;16.298;2023-02-16T00:15:24;100606.28;;;0.44;100.00
43503;BME280;29098;48.184;16.298;2023-02-16T00:17:50;100607.22;;;0.43;100.00
43503;BME280;29098;48.184;16.298;2023-02-16T00:20:16;100607.38;;;0.40;100.00
43503;BME280;29098;48.184;16.298;2023-02-16T00:22:41;100609.56;;;0.48;100.00
43503;BME280;29098;48.184;16.298;2023-02-16T00:25:07;100608.56;;;0.50;100.00
43503;BME280;29098;48.184;16.298;2023-02-16T00:27:32;100610.22;;;0.51;100.00
43503;BME280;29098;48.184;16.298;2023-02-16T00:29:58;100607.44;;;0.71;100.00
43503;BME280;29098;48.184;16.298;2023-02-16T00:32:24;100613.56;;;0.53;100.00
43503;BME280;29098;48.184;16.298;2023-02-16T00:34:50;100616.56;;;0.62;100.00
43503;BME280;29098;48.184;16.298;2023-02-16T00:37:15;100607.50;;;0.69;100.00
43503;BME280;29098;48.184;16.298;2023-02-16T00:39:41;100604.97;;;0.84;100.00
43503;BME280;29098;48.184;16.298;2023-02-16T00:44:43;100603.00;;;0.57;100.00
43503;BME280;29098;48.184;16.298;2023-02-16T00:49:40;100599.28;;;0.77;100.00
43503;BME280;29098;48.184;16.298;2023-02-16T00:52:39;100599.94;;;0.80;100.00
43503;BME280;29098;48.184;16.298;2023-02-16T00:54:57;100602.34;;;0.53;100.00
43503;BME280;29098;48.184;16.298;2023-02-16T00:57:23;100595.25;;;0.40;100.00
43503;BME280;29098;48.184;16.298;2023-02-16T00:59:51;100583.28;;;0.38;100.00
43503;BME280;29098;48.184;16.298;2023-02-16T01:02:20;100592.72;;;0.39;100.00
43503;BME280;29098;48.184;16.298;2023-02-16T01:04:45;100586.28;;;0.46;100.00
43503;BME280;29098;48.184;16.298;2023-02-16T01:07:11;100583.69;;;0.46;100.00
43503;BME280;29098;48.184;16.298;2023-02-16T01:09:55;100575.22;;;0.43;100.00
43503;BME280;29098;48.184;16.298;2023-02-16T01:12:39;100575.81;;;0.32;100.00
43503;BME280;29098;48.184;16.298;2023-02-16T01:15:05;100576.75;;;0.47;100.00
43503;BME280;29098;48.184;16.298;2023-02-16T01:17:34;100573.53;;;0.58;100.00
43503;BME280;29098;48.184;16.298;2023-02-16T01:19:59;100577.22;;;0.53;100.00
43503;BME280;29098;48.184;16.298;2023-02-16T01:22:24;100580.31;;;0.60;100.00
43503;BME280;29098;48.184;16.298;2023-02-16T01:24:50;100567.72;;;0.38;100.00
43503;BME280;29098;48.184;16.298;2023-02-16T01:27:16;100562.66;;;0.67;100.00
43503;BME280;29098;48.184;16.298;2023-02-16T01:29:41;100568.53;;;0.54;100.00
43503;BME280;29098;48.184;16.298;2023-02-16T01:32:08;100565.53;;;0.46;100.00
43503;BME280;29098;48.184;16.298;2023-02-16T01:34:34;100566.44;;;0.45;100.00
43503;BME280;29098;48.184;16.298;2023-02-16T01:36:59;100568.84;;;0.64;100.00
43503;BME280;29098;48.184;16.298;2023-02-16T01:39:24;100559.94;;;0.68;100.00
43503;BME280;29098;48.184;16.298;2023-02-16T01:46:51;100551.34;;;0.68;100.00
43503;BME280;29098;48.184;16.298;2023-02-16T01:49:18;100541.44;;;0.75;100.00
43503;BME280;29098;48.184;16.298;2023-02-16T01:51:50;100554.06;;;0.81;100.00
43503;BME280;29098;48.184;16.298;2023-02-16T01:54:24;100546.63;;;0.75;100.00
43503;BME280;29098;48.184;16.298;2023-02-16T01:59:59;100540.91;;;0.84;100.00
43503;BME280;29098;48.184;16.298;2023-02-16T02:02:27;100543.03;;;0.77;100.00
43503;BME280;29098;48.184;16.298;2023-02-16T02:05:05;100535.31;;;0.76;100.00
43503;BME280;29098;48.184;16.298;2023-02-16T02:07:51;100537.28;;;0.87;100.00
43503;BME280;29098;48.184;16.298;2023-02-16T02:15:19;100533.56;;;0.76;100.00
43503;BME280;29098;48.184;16.298;2023-02-16T02:17:46;100530.78;;;0.79;100.00
43503;BME280;29098;48.184;16.298;2023-02-16T02:20:15;100529.34;;;0.90;100.00
43503;BME280;29098;48.184;16.298;2023-02-16T02:28:22;100531.09;;;0.89;100.00
43503;BME280;29098;48.184;16.298;2023-02-16T02:35:53;100530.28;;;1.03;100.00
43503;BME280;29098;48.184;16.298;2023-02-16T02:40:58;100525.78;;;0.76;100.00
43503;BME280;29098;48.184;16.298;2023-02-16T02:46:04;100528.50;;;0.89;100.00
43503;BME280;29098;48.184;16.298;2023-02-16T02:48:32;100533.09;;;1.15;100.00
43503;BME280;29098;48.184;16.298;2023-02-16T02:51:00;100537.69;;;0.95;100.00
43503;BME280;29098;48.184;16.298;2023-02-16T02:53:49;100532.03;;;0.88;100.00
43503;BME280;29098;48.184;16.298;2023-02-16T02:56:35;100538.50;;;0.81;100.00
43503;BME280;29098;48.184;16.298;2023-02-16T02:59:20;100540.34;;;0.79;100.00
43503;BME280;29098;48.184;16.298;2023-02-16T03:02:04;100543.34;;;0.87;100.00
43503;BME280;29098;48.184;16.298;2023-02-16T03:04:30;100536.69;;;0.67;100.00
43503;BME280;29098;48.184;16.298;2023-02-16T03:06:57;100528.72;;;0.70;100.00
43503;BME280;29098;48.184;16.298;2023-02-16T03:09:24;100533.59;;;0.60;100.00
43503;BME280;29098;48.184;16.298;2023-02-16T03:11:50;100530.94;;;0.62;100.00
43503;BME280;29098;48.184;16.298;2023-02-16T03:17:02;100524.53;;;0.67;100.00
43503;BME280;29098;48.184;16.298;2023-02-16T03:19:48;100525.38;;;0.68;100.00
43503;BME280;29098;48.184;16.298;2023-02-16T03:22:32;100526.19;;;0.68;100.00
43503;BME280;29098;48.184;16.298;2023-02-16T03:25:17;100530.88;;;0.78;100.00
43503;BME280;29098;48.184;16.298;2023-02-16T03:28:01;100521.25;;;0.80;100.00
43503;BME280;29098;48.184;16.298;2023-02-16T03:30:47;100527.66;;;1.03;100.00
43503;BME280;29098;48.184;16.298;2023-02-16T03:33:14;100528.44;;;0.75;100.00
43503;BME280;29098;48.184;16.298;2023-02-16T03:35:40;100528.13;;;0.65;100.00
43503;BME280;29098;48.184;16.298;2023-02-16T03:38:05;100528.53;;;0.59;100.00
43503;BME280;29098;48.184;16.298;2023-02-16T03:40:31;100535.44;;;0.58;100.00
43503;BME280;29098;48.184;16.298;2023-02-16T03:43:02;100525.91;;;0.59;100.00
43503;BME280;29098;48.184;16.298;2023-02-16T03:45:28;100527.19;;;0.51;100.00
43503;BME280;29098;48.184;16.298;2023-02-16T03:47:54;100524.94;;;0.45;100.00
43503;BME280;29098;48.184;16.298;2023-02-16T03:50:20;100522.22;;;0.63;100.00
43503;BME280;29098;48.184;16.298;2023-02-16T03:52:55;100522.72;;;0.70;100.00
43503;BME280;29098;48.184;16.298;2023-02-16T03:55:34;100523.75;;;0.51;100.00
43503;BME280;29098;48.184;16.298;2023-02-16T03:58:00;100531.31;;;0.39;100.00
43503;BME280;29098;48.184;16.298;2023-02-16T04:00:26;100537.50;;;0.37;100.00
43503;BME280;29098;48.184;16.298;2023-02-16T04:02:51;100541.59;;;0.41;100.00
43503;BME280;29098;48.184;16.298;2023-02-16T04:05:17;100538.25;;;0.39;100.00
43503;BME280;29098;48.184;16.298;2023-02-16T04:07:42;100533.19;;;0.21;100.00
43503;BME280;29098;48.184;16.298;2023-02-16T04:10:08;100524.94;;;0.29;100.00
43503;BME280;29098;48.184;16.298;2023-02-16T04:12:33;100527.53;;;0.29;100.00
43503;BME280;29098;48.184;16.298;2023-02-16T04:15:05;100533.50;;;0.31;100.00
43503;BME280;29098;48.184;16.298;2023-02-16T04:17:32;100529.50;;;0.09;100.00
43503;BME280;29098;48.184;16.298;2023-02-16T04:19:57;100520.53;;;0.15;100.00
43503;BME280;29098;48.184;16.298;2023-02-16T04:22:23;100526.25;;;0.06;100.00
43503;BME280;29098;48.184;16.298;2023-02-16T04:24:48;100524.72;;;0.02;100.00
43503;BME280;29098;48.184;16.298;2023-02-16T04:27:13;100516.03;;;-0.13;100.00
43503;BME280;29098;48.184;16.298;2023-02-16T04:29:39;100518.22;;;-0.22;100.00
43503;BME280;29098;48.184;16.298;2023-02-16T04:32:04;100522.56;;;-0.22;100.00
43503;BME280;29098;48.184;16.298;2023-02-16T04:34:30;100521.91;;;-0.10;100.00
43503;BME280;29098;48.184;16.298;2023-02-16T04:36:55;100523.63;;;-0.10;100.00
43503;BME280;29098;48.184;16.298;2023-02-16T04:39:21;100518.38;;;-0.09;100.00
43503;BME280;29098;48.184;16.298;2023-02-16T04:41:46;100518.38;;;-0.25;100.00
43503;BME280;29098;48.184;16.298;2023-02-16T04:44:11;100526.56;;;-0.33;100.00
43503;BME280;29098;48.184;16.298;2023-02-16T04:46:37;100517.69;;;-0.29;100.00
43503;BME280;29098;48.184;16.298;2023-02-16T04:49:02;100517.94;;;-0.33;100.00
43503;BME280;29098;48.184;16.298;2023-02-16T04:51:28;100514.19;;;-0.28;100.00
43503;BME280;29098;48.184;16.298;2023-02-16T04:53:53;100510.34;;;-0.36;100.00
43503;BME280;29098;48.184;16.298;2023-02-16T04:56:18;100509.34;;;-0.34;100.00
43503;BME280;29098;48.184;16.298;2023-02-16T04:58:44;100511.59;;;-0.44;100.00
43503;BME280;29098;48.184;16.298;2023-02-16T05:01:16;100524.53;;;-0.44;100.00
43503;BME280;29098;48.184;16.298;2023-02-16T05:03:42;100517.59;;;-0.43;100.00
43503;BME280;29098;48.184;16.298;2023-02-16T05:06:07;100519.53;;;-0.31;100.00
43503;BME280;29098;48.184;16.298;2023-02-16T05:08:33;100514.69;;;-0.37;100.00
43503;BME280;29098;48.184;16.298;2023-02-16T05:10:58;100516.84;;;-0.45;100.00
43503;BME280;29098;48.184;16.298;2023-02-16T05:13:42;100510.47;;;-0.56;100.00
43503;BME280;29098;48.184;16.298;2023-02-16T05:16:30;100506.13;;;-0.55;100.00
43503;BME280;29098;48.184;16.298;2023-02-16T05:18:56;100515.44;;;-0.35;100.00
43503;BME280;29098;48.184;16.298;2023-02-16T05:21:21;100513.75;;;-0.36;100.00
43503;BME280;29098;48.184;16.298;2023-02-16T05:23:56;100518.53;;;-0.28;100.00
43503;BME280;29098;48.184;16.298;2023-02-16T05:26:21;100512.84;;;-0.35;100.00
43503;BME280;29098;48.184;16.298;2023-02-16T05:28:47;100516.34;;;-0.36;100.00
43503;BME280;29098;48.184;16.298;2023-02-16T05:31:12;100506.91;;;-0.37;100.00
43503;BME280;29098;48.184;16.298;2023-02-16T05:33:38;100509.59;;;-0.38;100.00
43503;BME280;29098;48.184;16.298;2023-02-16T05:36:03;100516.69;;;-0.26;100.00
43503;BME280;29098;48.184;16.298;2023-02-16T05:38:28;100512.25;;;-0.24;100.00
43503;BME280;29098;48.184;16.298;2023-02-16T05:40:54;100522.56;;;-0.22;100.00
43503;BME280;29098;48.184;16.298;2023-02-16T05:43:19;100520.28;;;-0.29;100.00
43503;BME280;29098;48.184;16.298;2023-02-16T05:45:45;100515.53;;;-0.36;100.00
43503;BME280;29098;48.184;16.298;2023-02-16T05:48:10;100518.00;;;-0.35;100.00
43503;BME280;29098;48.184;16.298;2023-02-16T05:50:35;100518.50;;;-0.44;100.00
43503;BME280;29098;48.184;16.298;2023-02-16T05:53:01;100522.03;;;-0.45;100.00
43503;BME280;29098;48.184;16.298;2023-02-16T05:55:26;100523.94;;;-0.49;100.00
43503;BME280;29098;48.184;16.298;2023-02-16T05:57:52;100520.28;;;-0.45;100.00
43503;BME280;29098;48.184;16.298;2023-02-16T06:00:17;100517.94;;;-0.49;100.00
43503;BME280;29098;48.184;16.298;2023-02-16T06:02:42;100522.50;;;-0.54;100.00
43503;BME280;29098;48.184;16.298;2023-02-16T06:05:08;100516.59;;;-0.57;100.00
43503;BME280;29098;48.184;16.298;2023-02-16T06:07:33;100523.25;;;-0.52;100.00
43503;BME280;29098;48.184;16.298;2023-02-16T06:09:59;100526.84;;;-0.55;100.00
43503;BME280;29098;48.184;16.298;2023-02-16T06:12:24;100525.53;;;-0.46;100.00
43503;BME280;29098;48.184;16.298;2023-02-16T06:14:49;100528.97;;;-0.46;100.00
43503;BME280;29098;48.184;16.298;2023-02-16T06:17:14;100535.25;;;-0.34;100.00
43503;BME280;29098;48.184;16.298;2023-02-16T06:19:40;100525.03;;;-0.37;100.00
43503;BME280;29098;48.184;16.298;2023-02-16T06:22:05;100532.41;;;-0.29;100.00
43503;BME280;29098;48.184;16.298;2023-02-16T06:24:30;100533.34;;;-0.30;100.00
43503;BME280;29098;48.184;16.298;2023-02-16T06:26:56;100531.75;;;-0.33;100.00
43503;BME280;29098;48.184;16.298;2023-02-16T06:29:21;100527.44;;;-0.50;100.00
43503;BME280;29098;48.184;16.298;2023-02-16T06:31:46;100531.31;;;-0.41;100.00
43503;BME280;29098;48.184;16.298;2023-02-16T06:34:12;100531.47;;;-0.44;100.00
43503;BME280;29098;48.184;16.298;2023-02-16T06:36:37;100538.75;;;-0.35;100.00
43503;BME280;29098;48.184;16.298;2023-02-16T06:39:02;100539.41;;;-0.31;100.00
43503;BME280;29098;48.184;16.298;2023-02-16T06:41:28;100551.97;;;-0.23;100.00
43503;BME280;29098;48.184;16.298;2023-02-16T06:44:00;100546.56;;;-0.52;100.00
43503;BME280;29098;48.184;16.298;2023-02-16T06:46:26;100542.94;;;-0.32;100.00
43503;BME280;29098;48.184;16.298;2023-02-16T06:48:52;100538.09;;;-0.22;100.00
43503;BME280;29098;48.184;16.298;2023-02-16T06:51:18;100547.44;;;-0.36;100.00
43503;BME280;29098;48.184;16.298;2023-02-16T06:53:43;100542.69;;;-0.28;100.00
43503;BME280;29098;48.184;16.298;2023-02-16T06:56:09;100550.41;;;-0.10;100.00
43503;BME280;29098;48.184;16.298;2023-02-16T06:58:34;100550.66;;;0.18;100.00
43503;BME280;29098;48.184;16.298;2023-02-16T07:00:59;100555.34;;;0.27;100.00
43503;BME280;29098;48.184;16.298;2023-02-16T07:03:25;100558.69;;;0.29;100.00
43503;BME280;29098;48.184;16.298;2023-02-16T07:05:50;100560.13;;;0.35;100.00
43503;BME280;29098;48.184;16.298;2023-02-16T07:08:16;100555.84;;;0.18;100.00
43503;BME280;29098;48.184;16.298;2023-02-16T07:10:42;100547.16;;;0.35;100.00
43503;BME280;29098;48.184;16.298;2023-02-16T07:13:08;100551.00;;;0.28;100.00
43503;BME280;29098;48.184;16.298;2023-02-16T07:15:33;100548.28;;;0.29;100.00
43503;BME280;29098;48.184;16.298;2023-02-16T07:17:58;100553.66;;;0.26;100.00
43503;BME280;29098;48.184;16.298;2023-02-16T07:20:23;100557.34;;;0.38;100.00
43503;BME280;29098;48.184;16.298;2023-02-16T07:22:50;100554.47;;;0.43;100.00
43503;BME280;29098;48.184;16.298;2023-02-16T07:25:15;100549.22;;;0.44;100.00
43503;BME280;29098;48.184;16.298;2023-02-16T07:27:41;100545.44;;;0.50;100.00
43503;BME280;29098;48.184;16.298;2023-02-16T07:30:06;100548.25;;;0.61;100.00
43503;BME280;29098;48.184;16.298;2023-02-16T07:32:33;100548.16;;;0.63;100.00
43503;BME280;29098;48.184;16.298;2023-02-16T07:34:58;100545.03;;;0.72;100.00
43503;BME280;29098;48.184;16.298;2023-02-16T07:37:23;100544.97;;;0.74;100.00
43503;BME280;29098;48.184;16.298;2023-02-16T07:39:49;100545.66;;;0.92;100.00
43503;BME280;29098;48.184;16.298;2023-02-16T07:42:14;100532.50;;;1.09;100.00
43503;BME280;29098;48.184;16.298;2023-02-16T07:44:40;100538.06;;;1.03;100.00
43503;BME280;29098;48.184;16.298;2023-02-16T07:47:05;100535.38;;;0.60;100.00
43503;BME280;29098;48.184;16.298;2023-02-16T07:49:31;100542.91;;;0.64;100.00
43503;BME280;29098;48.184;16.298;2023-02-16T07:51:56;100532.50;;;0.64;100.00
43503;BME280;29098;48.184;16.298;2023-02-16T07:54:21;100539.03;;;0.72;100.00
43503;BME280;29098;48.184;16.298;2023-02-16T07:56:47;100537.13;;;0.59;100.00
43503;BME280;29098;48.184;16.298;2023-02-16T07:59:13;100540.03;;;0.69;100.00
43503;BME280;29098;48.184;16.298;2023-02-16T08:01:39;100534.56;;;0.74;100.00
43503;BME280;29098;48.184;16.298;2023-02-16T08:04:05;100527.78;;;0.71;100.00
43503;BME280;29098;48.184;16.298;2023-02-16T08:06:32;100532.69;;;0.92;100.00
43503;BME280;29098;48.184;16.298;2023-02-16T08:08:58;100533.25;;;0.97;100.00
43503;BME280;29098;48.184;16.298;2023-02-16T08:11:23;100532.22;;;1.00;100.00
43503;BME280;29098;48.184;16.298;2023-02-16T08:13:49;100536.78;;;1.11;100.00
43503;BME280;29098;48.184;16.298;2023-02-16T08:16:16;100535.69;;;1.15;99.97
43503;BME280;29098;48.184;16.298;2023-02-16T08:18:42;100545.72;;;1.21;100.00
43503;BME280;29098;48.184;16.298;2023-02-16T08:21:08;100533.81;;;1.17;100.00
43503;BME280;29098;48.184;16.298;2023-02-16T08:23:42;100544.13;;;1.18;99.83
43503;BME280;29098;48.184;16.298;2023-02-16T08:26:10;100545.78;;;1.05;100.00
43503;BME280;29098;48.184;16.298;2023-02-16T08:28:36;100550.16;;;1.04;100.00
43503;BME280;29098;48.184;16.298;2023-02-16T08:31:05;100552.50;;;0.93;100.00
43503;BME280;29098;48.184;16.298;2023-02-16T08:33:30;100546.94;;;0.85;100.00
43503;BME280;29098;48.184;16.298;2023-02-16T08:35:57;100550.97;;;1.05;100.00
43503;BME280;29098;48.184;16.298;2023-02-16T08:38:23;100546.81;;;1.17;100.00
43503;BME280;29098;48.184;16.298;2023-02-16T08:40:48;100553.59;;;1.19;99.96
43503;BME280;29098;48.184;16.298;2023-02-16T08:43:14;100545.34;;;1.27;99.87
43503;BME280;29098;48.184;16.298;2023-02-16T08:45:44;100550.53;;;1.27;99.90
43503;BME280;29098;48.184;16.298;2023-02-16T08:48:10;100549.63;;;1.28;99.88
43503;BME280;29098;48.184;16.298;2023-02-16T08:50:35;100542.00;;;1.40;99.32
43503;BME280;29098;48.184;16.298;2023-02-16T08:53:01;100540.13;;;1.71;98.16
43503;BME280;29098;48.184;16.298;2023-02-16T08:55:26;100541.91;;;1.70;98.06
43503;BME280;29098;48.184;16.298;2023-02-16T08:57:52;100548.28;;;1.79;97.38
43503;BME280;29098;48.184;16.298;2023-02-16T09:00:17;100545.13;;;1.88;97.18
43503;BME280;29098;48.184;16.298;2023-02-16T09:03:02;100548.53;;;2.03;96.94
43503;BME280;29098;48.184;16.298;2023-02-16T09:05:28;100554.00;;;2.13;95.86
43503;BME280;29098;48.184;16.298;2023-02-16T09:07:54;100550.81;;;2.23;95.19
43503;BME280;29098;48.184;16.298;2023-02-16T09:10:19;100555.34;;;2.33;94.00
43503;BME280;29098;48.184;16.298;2023-02-16T09:12:48;100560.63;;;2.32;94.68
43503;BME280;29098;48.184;16.298;2023-02-16T09:15:14;100556.31;;;2.45;93.95
43503;BME280;29098;48.184;16.298;2023-02-16T09:17:40;100558.09;;;2.58;92.54
43503;BME280;29098;48.184;16.298;2023-02-16T09:20:06;100551.69;;;2.64;92.81
43503;BME280;29098;48.184;16.298;2023-02-16T09:22:32;100553.34;;;2.65;92.92
43503;BME280;29098;48.184;16.298;2023-02-16T09:24:57;100550.28;;;2.98;91.46
43503;BME280;29098;48.184;16.298;2023-02-16T09:27:22;100555.28;;;3.01;90.80
43503;BME280;29098;48.184;16.298;2023-02-16T09:29:48;100549.44;;;3.11;90.00
43503;BME280;29098;48.184;16.298;2023-02-16T09:32:14;100542.69;;;3.21;90.21
43503;BME280;29098;48.184;16.298;2023-02-16T09:34:39;100542.16;;;3.42;89.65
43503;BME280;29098;48.184;16.298;2023-02-16T09:37:05;100537.13;;;3.65;88.23
43503;BME280;29098;48.184;16.298;2023-02-16T09:39:31;100538.88;;;3.77;87.40
43503;BME280;29098;48.184;16.298;2023-02-16T09:42:03;100537.28;;;3.88;86.70
43503;BME280;29098;48.184;16.298;2023-02-16T09:44:34;100539.53;;;4.05;86.13
43503;BME280;29098;48.184;16.298;2023-02-16T09:47:04;100536.78;;;4.20;86.00
43503;BME280;29098;48.184;16.298;2023-02-16T09:49:31;100533.53;;;4.41;86.20
43503;BME280;29098;48.184;16.298;2023-02-16T09:52:03;100535.69;;;4.47;85.16
43503;BME280;29098;48.184;16.298;2023-02-16T09:54:38;100535.38;;;4.51;82.79
43503;BME280;29098;48.184;16.298;2023-02-16T09:57:07;100530.31;;;4.61;82.94
43503;BME280;29098;48.184;16.298;2023-02-16T09:59:51;100531.06;;;4.75;81.65
43503;BME280;29098;48.184;16.298;2023-02-16T10:09:47;100516.66;;;5.05;80.86
43503;BME280;29098;48.184;16.298;2023-02-16T10:12:18;100516.28;;;5.21;79.52
43503;BME280;29098;48.184;16.298;2023-02-16T10:14:48;100520.22;;;5.27;78.61
43503;BME280;29098;48.184;16.298;2023-02-16T10:20:00;100509.16;;;5.57;78.69
43503;BME280;29098;48.184;16.298;2023-02-16T10:22:35;100509.13;;;5.80;78.87
43503;BME280;29098;48.184;16.298;2023-02-16T10:27:49;100501.09;;;6.16;76.02
43503;BME280;29098;48.184;16.298;2023-02-16T10:30:17;100500.41;;;6.14;74.63
43503;BME280;29098;48.184;16.298;2023-02-16T10:33:09;100500.56;;;6.34;73.56
43503;BME280;29098;48.184;16.298;2023-02-16T10:35:45;100499.47;;;6.36;73.16
43503;BME280;29098;48.184;16.298;2023-02-16T10:43:24;100495.66;;;6.83;72.26
43503;BME280;29098;48.184;16.298;2023-02-16T10:45:56;100491.28;;;6.83;71.29
43503;BME280;29098;48.184;16.298;2023-02-16T10:48:25;100496.09;;;6.46;72.48
43503;BME280;29098;48.184;16.298;2023-02-16T10:50:54;100493.16;;;6.39;73.28
43503;BME280;29098;48.184;16.298;2023-02-16T10:55:50;100477.16;;;6.53;73.38
43503;BME280;29098;48.184;16.298;2023-02-16T10:58:18;100485.47;;;6.58;73.49
43503;BME280;29098;48.184;16.298;2023-02-16T11:00:49;100476.50;;;6.40;72.92
43503;BME280;29098;48.184;16.298;2023-02-16T11:03:17;100468.06;;;6.36;73.97
43503;BME280;29098;48.184;16.298;2023-02-16T11:05:45;100463.78;;;6.56;74.17
43503;BME280;29098;48.184;16.298;2023-02-16T11:08:10;100467.66;;;6.62;73.49
43503;BME280;29098;48.184;16.298;2023-02-16T11:10:42;100469.75;;;7.11;72.31
43503;BME280;29098;48.184;16.298;2023-02-16T11:16:00;100455.53;;;7.54;70.09
43503;BME280;29098;48.184;16.298;2023-02-16T11:18:31;100457.97;;;7.36;71.08
43503;BME280;29098;48.184;16.298;2023-02-16T11:20:58;100455.47;;;7.86;68.09
43503;BME280;29098;48.184;16.298;2023-02-16T11:23:27;100455.19;;;7.99;68.70
43503;BME280;29098;48.184;16.298;2023-02-16T11:28:24;100448.34;;;8.95;65.24
43503;BME280;29098;48.184;16.298;2023-02-16T11:30:49;100450.50;;;9.09;63.62
43503;BME280;29098;48.184;16.298;2023-02-16T11:33:23;100442.84;;;9.44;62.05
43503;BME280;29098;48.184;16.298;2023-02-16T11:35:51;100440.59;;;9.49;61.84
43503;BME280;29098;48.184;16.298;2023-02-16T11:38:33;100439.41;;;9.62;61.53
43503;BME280;29098;48.184;16.298;2023-02-16T11:40:59;100433.69;;;9.48;62.49
43503;BME280;29098;48.184;16.298;2023-02-16T11:43:26;100434.78;;;9.92;61.35
43503;BME280;29098;48.184;16.298;2023-02-16T11:45:56;100426.69;;;10.30;59.51
43503;BME280;29098;48.184;16.298;2023-02-16T11:48:26;100416.06;;;10.39;59.23
43503;BME280;29098;48.184;16.298;2023-02-16T11:53:44;100420.34;;;11.28;56.61
43503;BME280;29098;48.184;16.298;2023-02-16T11:58:36;100412.00;;;11.58;55.08
43503;BME280;29098;48.184;16.298;2023-02-16T12:16:40;100399.38;;;12.28;52.57
43503;BME280;29098;48.184;16.298;2023-02-16T12:19:23;100396.56;;;12.29;51.88
43503;BME280;29098;48.184;16.298;2023-02-16T12:21:58;100389.72;;;11.52;55.02
43503;BME280;29098;48.184;16.298;2023-02-16T12:27:01;100381.50;;;11.80;54.02
43503;BME280;29098;48.184;16.298;2023-02-16T12:29:31;100375.38;;;10.60;56.31
43503;BME280;29098;48.184;16.298;2023-02-16T12:32:05;100368.81;;;10.20;57.66
43503;BME280;29098;48.184;16.298;2023-02-16T12:34:55;100358.53;;;9.90;59.76
43503;BME280;29098;48.184;16.298;2023-02-16T12:37:29;100356.56;;;10.10;58.38
43503;BME280;29098;48.184;16.298;2023-02-16T12:44:59;100350.44;;;10.89;56.67
43503;BME280;29098;48.184;16.298;2023-02-16T12:47:45;100352.28;;;10.97;56.83
43503;BME280;29098;48.184;16.298;2023-02-16T12:50:16;100350.94;;;10.58;56.13
43503;BME280;29098;48.184;16.298;2023-02-16T12:55:25;100342.81;;;10.78;56.27
43503;BME280;29098;48.184;16.298;2023-02-16T12:58:38;100337.25;;;11.49;54.71
43503;BME280;29098;48.184;16.298;2023-02-16T13:00:46;100341.03;;;11.88;54.76
43503;BME280;29098;48.184;16.298;2023-02-16T13:05:55;100331.81;;;11.84;54.13
43503;BME280;29098;48.184;16.298;2023-02-16T13:08:28;100333.28;;;11.61;53.30
43503;BME280;29098;48.184;16.298;2023-02-16T13:13:34;100326.25;;;12.60;51.59
43503;BME280;29098;48.184;16.298;2023-02-16T13:16:04;100321.75;;;12.69;51.71
43503;BME280;29098;48.184;16.298;2023-02-16T13:18:31;100322.09;;;13.06;49.98
43503;BME280;29098;48.184;16.298;2023-02-16T13:20:58;100320.59;;;13.58;48.83
43503;BME280;29098;48.184;16.298;2023-02-16T13:33:43;100286.28;;;12.86;50.33
43503;BME280;29098;48.184;16.298;2023-02-16T13:36:37;100300.13;;;12.97;50.04
43503;BME280;29098;48.184;16.298;2023-02-16T13:44:00;100297.13;;;11.78;52.60
43503;BME280;29098;48.184;16.298;2023-02-16T13:46:29;100297.16;;;11.54;53.53
43503;BME280;29098;48.184;16.298;2023-02-16T13:48:55;100302.69;;;11.17;54.52
43503;BME280;29098;48.184;16.298;2023-02-16T13:51:22;100291.06;;;10.77;56.24
43503;BME280;29098;48.184;16.298;2023-02-16T13:53:53;100285.56;;;10.70;56.57
43503;BME280;29098;48.184;16.298;2023-02-16T13:58:50;100288.34;;;11.03;55.57
43503;BME280;29098;48.184;16.298;2023-02-16T14:01:33;100283.00;;;10.78;56.61
43503;BME280;29098;48.184;16.298;2023-02-16T14:04:00;100289.25;;;10.43;57.53
43503;BME280;29098;48.184;16.298;2023-02-16T14:06:27;100286.53;;;10.34;58.37
43503;BME280;29098;48.184;16.298;2023-02-16T14:19:38;100278.91;;;9.96;60.69
43503;BME280;29098;48.184;16.298;2023-02-16T14:22:08;100270.22;;;9.33;62.16
43503;BME280;29098;48.184;16.298;2023-02-16T14:24:35;100271.94;;;9.42;62.22
43503;BME280;29098;48.184;16.298;2023-02-16T14:27:04;100274.19;;;9.37;62.09
43503;BME280;29098;48.184;16.298;2023-02-16T14:34:39;100286.31;;;9.93;61.30
43503;BME280;29098;48.184;16.298;2023-02-16T14:39:45;100279.94;;;10.04;61.16
43503;BME280;29098;48.184;16.298;2023-02-16T14:42:15;100278.19;;;10.12;60.31
43503;BME280;29098;48.184;16.298;2023-02-16T14:47:43;100272.88;;;10.39;59.67
43503;BME280;29098;48.184;16.298;2023-02-16T14:57:58;100256.31;;;10.47;59.31
43503;BME280;29098;48.184;16.298;2023-02-16T15:00:29;100245.22;;;10.35;59.24
43503;BME280;29098;48.184;16.298;2023-02-16T15:03:03;100251.66;;;10.40;60.10
43503;BME280;29098;48.184;16.298;2023-02-16T15:05:30;100253.50;;;10.13;60.69
43503;BME280;29098;48.184;16.298;2023-02-16T15:08:02;100254.19;;;9.89;61.91
43503;BME280;29098;48.184;16.298;2023-02-16T15:10:29;100244.88;;;10.38;60.58
43503;BME280;29098;48.184;16.298;2023-02-16T15:12:56;100250.25;;;10.28;60.40